createdAt,value
2017-03-21T00:00:09.156Z,10.22
2017-03-21T00:01:18.719Z,10.22
2017-03-21T00:02:27.991Z,10.29
2017-03-21T00:03:36.956Z,10.34
2017-03-21T00:04:45.981Z,10.29
2017-03-21T00:05:54.943Z,10.25
2017-03-21T00:07:03.917Z,10.36
2017-03-21T00:08:13.179Z,10.34
2017-03-21T00:09:23.345Z,10.26
2017-03-21T00:10:32.610Z,10.18
2017-03-21T00:11:41.568Z,10.12
2017-03-21T00:12:50.235Z,10.14
2017-03-21T00:13:59.501Z,10.18
2017-03-21T00:15:08.763Z,10.2
2017-03-21T00:16:17.724Z,10.18
2017-03-21T00:17:26.828Z,10.22
2017-03-21T00:18:36.132Z,10.17
2017-03-21T00:19:45.819Z,10.25
2017-03-21T00:20:54.792Z,10.22
2017-03-21T00:22:04.076Z,10.22
2017-03-21T00:23:13.336Z,10.15
2017-03-21T00:24:22.620Z,10.09
2017-03-21T00:25:31.580Z,10.23
2017-03-21T00:26:40.746Z,10.22
2017-03-21T00:27:50.016Z,10.14
2017-03-21T00:28:58.984Z,10.15
2017-03-21T00:30:08.661Z,10.22
2017-03-21T00:31:17.315Z,10.14
2017-03-21T00:32:26.270Z,10.17
2017-03-21T00:33:35.538Z,10.22
2017-03-21T00:34:44.534Z,10.26
2017-03-21T00:35:53.496Z,10.23
2017-03-21T00:37:02.860Z,10.3
2017-03-21T00:38:11.816Z,10.32
2017-03-21T00:39:21.390Z,10.32
2017-03-21T00:40:30.977Z,10.29
2017-03-21T00:41:40.107Z,10.27
2017-03-21T00:42:49.220Z,10.33
2017-03-21T00:43:58.896Z,10.32
2017-03-21T00:45:08.482Z,10.3
2017-03-21T00:46:17.447Z,10.34
2017-03-21T00:47:26.108Z,10.3
2017-03-21T00:48:35.674Z,10.27
2017-03-21T00:49:45.240Z,10.38
2017-03-21T00:50:54.506Z,10.41
2017-03-21T00:52:04.064Z,10.36
2017-03-21T00:53:12.811Z,10.3
2017-03-21T00:54:22.695Z,10.25
2017-03-21T00:55:31.951Z,10.32
2017-03-21T00:56:40.901Z,10.3
2017-03-21T00:57:50.480Z,10.25
2017-03-21T00:59:00.066Z,10.26
2017-03-21T01:00:08.730Z,10.22
2017-03-21T01:01:18.045Z,10.17
2017-03-21T01:30:26.147Z,10.27
2017-03-21T01:31:35.114Z,10.36
2017-03-21T01:32:44.096Z,10.34
2017-03-21T01:33:53.984Z,10.4
2017-03-21T01:35:02.669Z,10.38
2017-03-21T01:36:11.643Z,10.4
2017-03-21T01:37:20.316Z,10.34
2017-03-21T01:38:29.286Z,10.42
2017-03-21T01:39:38.561Z,10.29
2017-03-21T01:40:47.838Z,10.36
2017-03-21T01:41:56.812Z,10.48
2017-03-21T01:43:06.095Z,10.44
2017-03-21T01:44:15.671Z,10.47
2017-03-21T01:45:24.652Z,10.44
2017-03-21T01:46:33.324Z,10.51
2017-03-21T01:47:42.298Z,10.47
2017-03-21T01:48:51.873Z,10.42
2017-03-21T01:50:00.552Z,10.47
2017-03-21T01:51:09.228Z,10.38
2017-03-21T01:52:18.195Z,10.48
2017-03-21T01:53:28.077Z,10.44
2017-03-21T01:54:37.661Z,10.56
2017-03-21T01:55:46.637Z,10.56
2017-03-21T01:56:55.615Z,10.52
2017-03-21T01:58:04.899Z,10.53
2017-03-21T01:59:14.473Z,10.52
2017-03-21T02:00:24.037Z,10.47
2017-03-21T02:01:32.719Z,10.45
2017-03-21T02:02:41.994Z,10.47
2017-03-21T02:03:51.607Z,10.36
2017-03-21T02:05:00.890Z,10.48
2017-03-21T02:06:10.473Z,10.42
2017-03-21T02:07:19.443Z,10.42
2017-03-21T02:08:29.059Z,10.41
2017-03-21T02:09:38.646Z,10.33
2017-03-21T02:10:47.617Z,10.4
2017-03-21T02:11:56.291Z,10.44
2017-03-21T02:13:05.260Z,10.44
2017-03-21T02:14:14.529Z,10.45
2017-03-21T02:15:23.801Z,10.48
2017-03-21T02:16:32.473Z,10.52
2017-03-21T02:17:41.457Z,10.56
2017-03-21T02:18:51.336Z,10.6
2017-03-21T02:20:01.212Z,10.51
2017-03-21T02:21:09.882Z,10.52
2017-03-21T02:22:18.549Z,10.47
2017-03-21T02:23:27.831Z,10.42
2017-03-21T02:24:37.413Z,10.29
2017-03-21T02:25:46.692Z,10.34
2017-03-21T02:26:55.366Z,10.33
2017-03-21T02:28:04.345Z,10.3
2017-03-21T02:29:13.664Z,10.29
2017-03-21T02:30:22.659Z,10.36
2017-03-21T02:31:31.651Z,10.27
2017-03-21T02:32:40.328Z,10.4
2017-03-21T02:33:49.296Z,10.34
2017-03-21T02:34:58.873Z,10.33
2017-03-21T02:36:07.836Z,10.3
2017-03-21T02:37:16.505Z,10.34
2017-03-21T02:38:25.481Z,10.4
2017-03-21T02:39:34.763Z,10.41
2017-03-21T02:40:43.435Z,10.4
2017-03-21T02:41:52.712Z,10.36
2017-03-21T02:43:01.699Z,10.42
2017-03-21T02:44:11.283Z,10.36
2017-03-21T02:45:20.563Z,10.41
2017-03-21T02:46:29.574Z,10.32
2017-03-21T02:47:38.547Z,10.34
2017-03-21T02:48:47.821Z,10.42
2017-03-21T02:49:57.103Z,10.36
2017-03-21T02:51:06.996Z,10.4
2017-03-21T02:52:15.672Z,10.36
2017-03-21T02:53:24.654Z,10.42
2017-03-21T02:54:33.936Z,10.38
2017-03-21T02:55:42.908Z,10.3
2017-03-21T02:56:51.589Z,10.34
2017-03-21T02:58:00.877Z,10.32
2017-03-21T02:59:10.158Z,10.38
2017-03-21T03:00:19.740Z,10.36
2017-03-21T03:01:28.410Z,10.36
2017-03-21T03:02:37.088Z,10.23
2017-03-21T03:03:46.375Z,10.3
2017-03-21T03:04:55.659Z,10.26
2017-03-21T03:06:04.965Z,10.23
2017-03-21T03:07:13.633Z,10.2
2017-03-21T03:08:22.916Z,10.26
2017-03-21T03:09:32.500Z,10.22
2017-03-21T03:10:41.772Z,10.22
2017-03-21T03:11:50.747Z,10.18
2017-03-21T03:12:59.715Z,10.26
2017-03-21T03:14:09.304Z,10.38
2017-03-21T03:15:18.589Z,10.2
2017-03-21T03:16:27.265Z,10.22
2017-03-21T03:17:36.256Z,10.26
2017-03-21T03:18:46.139Z,10.18
2017-03-21T03:19:55.715Z,10.14
2017-03-21T03:21:04.981Z,10.11
2017-03-21T03:22:14.254Z,10.12
2017-03-21T03:23:23.222Z,10.07
2017-03-21T03:24:32.205Z,9.91
2017-03-21T03:25:40.878Z,9.89
2017-03-21T03:26:49.554Z,9.72
2017-03-21T03:27:58.522Z,9.69
2017-03-21T03:29:08.401Z,9.71
2017-03-21T03:30:17.378Z,9.6
2017-03-21T03:31:26.358Z,9.65
2017-03-21T03:32:35.325Z,9.66
2017-03-21T03:33:44.922Z,9.6
2017-03-21T03:34:53.904Z,9.61
2017-03-21T03:36:03.476Z,9.65
2017-03-21T03:37:12.442Z,9.58
2017-03-21T03:38:21.709Z,9.57
2017-03-21T03:39:30.991Z,9.58
2017-03-21T03:40:40.265Z,9.57
2017-03-21T03:41:49.238Z,9.6
2017-03-21T03:42:58.210Z,9.53
2017-03-21T03:44:07.491Z,9.65
2017-03-21T03:45:16.771Z,9.5
2017-03-21T03:46:25.453Z,9.43
2017-03-21T03:47:34.741Z,9.38
2017-03-21T03:48:44.317Z,9.39
2017-03-21T03:49:53.607Z,9.36
2017-03-21T03:51:03.490Z,9.36
2017-03-21T03:52:12.480Z,9.23
2017-03-21T03:53:22.065Z,9.18
2017-03-21T03:54:31.040Z,9.14
2017-03-21T03:55:40.321Z,9.2
2017-03-21T03:56:49.015Z,9.15
2017-03-21T03:57:57.995Z,9.21
2017-03-21T03:59:07.883Z,9.18
2017-03-21T04:00:17.169Z,9.18
2017-03-21T04:01:25.854Z,9.13
2017-03-21T04:02:34.832Z,9.17
2017-03-21T04:03:44.110Z,9.17
2017-03-21T04:04:53.688Z,9.2
2017-03-21T04:06:02.965Z,9.23
2017-03-21T04:07:11.938Z,9.23
2017-03-21T04:08:21.206Z,9.26
2017-03-21T04:09:30.485Z,9.29
2017-03-21T04:10:39.155Z,9.23
2017-03-21T04:11:47.817Z,9.26
2017-03-21T04:12:57.394Z,9.29
2017-03-21T04:14:06.374Z,9.23
2017-03-21T04:15:15.349Z,9.24
2017-03-21T04:16:24.319Z,9.29
2017-03-21T04:17:33.294Z,9.26
2017-03-21T04:18:42.568Z,9.26
2017-03-21T04:19:52.442Z,9.24
2017-03-21T04:21:01.720Z,9.21
2017-03-21T04:22:10.697Z,9.18
2017-03-21T04:23:19.978Z,9.17
2017-03-21T04:24:30.158Z,9.26
2017-03-21T04:25:39.745Z,9.26
2017-03-21T04:26:48.414Z,9.26
2017-03-21T04:27:57.685Z,9.29
2017-03-21T04:29:06.666Z,9.31
2017-03-21T04:30:15.644Z,9.39
2017-03-21T04:31:24.312Z,9.39
2017-03-21T04:32:32.978Z,9.4
2017-03-21T04:33:42.263Z,9.32
2017-03-21T04:34:52.140Z,9.38
2017-03-21T04:36:01.719Z,9.26
2017-03-21T04:37:10.691Z,9.2
2017-03-21T04:38:19.667Z,9.11
2017-03-21T04:39:29.257Z,9.05
2017-03-21T04:40:38.237Z,8.95
2017-03-21T04:41:47.514Z,9.05
2017-03-21T04:42:56.787Z,9.02
2017-03-21T04:44:06.064Z,9.01
2017-03-21T04:45:15.356Z,9.04
2017-03-21T04:46:24.634Z,9.1
2017-03-21T04:47:33.313Z,9.04
2017-03-21T04:48:42.893Z,9.04
2017-03-21T04:49:52.166Z,8.99
2017-03-21T04:51:01.453Z,9.08
2017-03-21T04:52:10.431Z,8.99
2017-03-21T04:53:19.410Z,9.02
2017-03-21T04:54:29.341Z,8.99
2017-03-21T04:55:38.007Z,8.86
2017-03-21T04:56:47.286Z,9.02
2017-03-21T04:57:56.254Z,8.96
2017-03-21T04:59:06.131Z,8.98
2017-03-21T05:00:16.006Z,9.04
2017-03-21T05:01:24.983Z,9.08
2017-03-21T05:02:33.962Z,9.17
2017-03-21T05:03:43.837Z,9.05
2017-03-21T05:04:53.719Z,9.08
2017-03-21T05:06:02.706Z,9.14
2017-03-21T05:07:11.681Z,9.17
2017-03-21T05:08:20.652Z,9.18
2017-03-21T05:09:29.941Z,9.17
2017-03-21T05:10:39.817Z,9.17
2017-03-21T05:11:48.823Z,9.17
2017-03-21T05:12:57.809Z,9.18
2017-03-21T05:14:06.782Z,9.21
2017-03-21T05:15:16.049Z,9.26
2017-03-21T05:16:25.016Z,9.33
2017-03-21T05:17:33.993Z,9.32
2017-03-21T05:18:43.865Z,9.32
2017-03-21T05:19:53.748Z,9.33
2017-03-21T05:21:03.028Z,9.29
2017-03-21T05:22:12.297Z,9.31
2017-03-21T05:23:21.277Z,9.24
2017-03-21T05:24:30.567Z,9.26
2017-03-21T05:25:39.844Z,9.2
2017-03-21T05:26:48.512Z,9.2
2017-03-21T05:27:57.481Z,9.23
2017-03-21T05:29:06.760Z,9.21
2017-03-21T05:30:16.035Z,9.15
2017-03-21T05:31:24.709Z,9.17
2017-03-21T05:32:33.680Z,9.15
2017-03-21T05:33:43.560Z,9.17
2017-03-21T05:34:53.142Z,9.14
2017-03-21T05:36:02.409Z,9.02
2017-03-21T05:37:11.387Z,9.15
2017-03-21T05:38:20.672Z,9.05
2017-03-21T05:39:30.259Z,9.04
2017-03-21T05:40:40.133Z,9.08
2017-03-21T05:41:49.097Z,9.11
2017-03-21T05:42:58.325Z,9.04
2017-03-21T05:44:07.912Z,9.08
2017-03-21T05:45:17.484Z,9.05
2017-03-21T05:46:26.451Z,8.98
2017-03-21T05:47:35.728Z,9.05
2017-03-21T05:48:45.309Z,9.08
2017-03-21T05:49:55.400Z,8.99
2017-03-21T05:51:04.681Z,8.89
2017-03-21T05:52:13.658Z,8.84
2017-03-21T05:53:22.942Z,8.83
2017-03-21T05:54:32.526Z,8.79
2017-03-21T05:55:41.803Z,8.63
2017-03-21T05:56:51.372Z,8.7
2017-03-21T05:58:00.652Z,8.58
2017-03-21T05:59:09.925Z,8.59
2017-03-21T06:00:19.208Z,8.65
2017-03-21T06:01:28.175Z,8.63
2017-03-21T06:02:37.455Z,8.68
2017-03-21T06:03:47.034Z,8.56
2017-03-21T06:04:56.608Z,8.68
2017-03-21T06:06:05.268Z,8.58
2017-03-21T06:07:14.239Z,8.58
2017-03-21T06:08:23.211Z,8.59
2017-03-21T06:09:32.493Z,8.61
2017-03-21T06:10:41.478Z,8.59
2017-03-21T06:11:50.152Z,8.71
2017-03-21T06:12:59.135Z,8.68
2017-03-21T06:14:08.416Z,8.56
2017-03-21T06:15:17.392Z,8.63
2017-03-21T06:16:26.062Z,8.59
2017-03-21T06:17:34.738Z,8.65
2017-03-21T06:18:44.315Z,8.52
2017-03-21T06:19:54.200Z,8.61
2017-03-21T06:21:03.164Z,8.52
2017-03-21T06:22:11.838Z,8.66
2017-03-21T06:23:20.807Z,8.71
2017-03-21T06:24:30.397Z,8.71
2017-03-21T06:25:39.968Z,8.62
2017-03-21T06:26:48.936Z,8.65
2017-03-21T06:27:57.598Z,8.56
2017-03-21T06:29:06.584Z,8.56
2017-03-21T06:30:15.567Z,8.52
2017-03-21T06:31:24.839Z,8.52
2017-03-21T06:32:33.813Z,8.58
2017-03-21T06:33:43.092Z,8.5
2017-03-21T06:34:52.374Z,8.45
2017-03-21T06:36:02.028Z,8.47
2017-03-21T06:37:10.686Z,8.48
2017-03-21T06:38:19.368Z,8.45
2017-03-21T06:39:28.945Z,8.55
2017-03-21T06:40:38.540Z,8.45
2017-03-21T06:41:47.815Z,8.52
2017-03-21T06:42:56.801Z,8.61
2017-03-21T06:44:06.371Z,8.62
2017-03-21T06:45:15.952Z,8.66
2017-03-21T06:46:24.630Z,8.74
2017-03-21T06:47:33.914Z,8.74
2017-03-21T06:48:43.816Z,8.89
2017-03-21T06:49:53.101Z,8.86
2017-03-21T06:51:02.400Z,9.02
2017-03-21T06:52:11.372Z,9.08
2017-03-21T06:53:20.643Z,9.11
2017-03-21T06:54:29.921Z,9.11
2017-03-21T06:55:38.591Z,9.17
2017-03-21T06:56:47.564Z,9.2
2017-03-21T06:57:56.544Z,9.29
2017-03-21T06:59:05.229Z,9.26
2017-03-21T07:00:14.498Z,9.32
2017-03-21T07:01:24.081Z,9.35
2017-03-21T07:02:33.059Z,9.39
2017-03-21T07:03:42.633Z,9.46
2017-03-21T07:04:52.514Z,9.47
2017-03-21T07:06:01.812Z,9.32
2017-03-21T07:07:10.781Z,9.32
2017-03-21T07:08:20.370Z,9.28
2017-03-21T07:09:29.652Z,9.26
2017-03-21T07:10:38.925Z,9.26
2017-03-21T07:11:47.594Z,9.2
2017-03-21T07:12:56.868Z,9.26
2017-03-21T07:14:05.840Z,9.39
2017-03-21T07:15:15.126Z,9.31
2017-03-21T07:16:24.095Z,9.32
2017-03-21T07:17:32.772Z,9.38
2017-03-21T07:18:42.352Z,9.29
2017-03-21T07:19:51.941Z,9.24
2017-03-21T07:21:01.218Z,9.32
2017-03-21T07:22:10.192Z,9.26
2017-03-21T07:23:19.785Z,9.24
2017-03-21T07:24:29.067Z,9.2
2017-03-21T07:25:38.644Z,9.2
2017-03-21T07:26:47.334Z,9.13
2017-03-21T07:27:56.008Z,9.26
2017-03-21T07:29:05.579Z,9.36
2017-03-21T07:30:14.549Z,9.46
2017-03-21T07:31:23.843Z,9.56
2017-03-21T07:32:33.119Z,9.57
2017-03-21T07:33:42.405Z,9.66
2017-03-21T07:34:51.692Z,9.61
2017-03-21T07:36:00.663Z,9.64
2017-03-21T07:37:10.233Z,9.74
2017-03-21T07:38:19.505Z,9.76
2017-03-21T07:39:28.801Z,9.9
2017-03-21T07:40:38.074Z,9.97
2017-03-21T07:41:47.050Z,10.07
2017-03-21T07:42:55.741Z,9.97
2017-03-21T07:44:05.022Z,9.9
2017-03-21T07:45:14.600Z,9.96
2017-03-21T07:46:24.200Z,10.17
2017-03-21T07:47:32.876Z,10.26
2017-03-21T07:48:42.469Z,10.44
2017-03-21T07:49:51.445Z,10.45
2017-03-21T07:51:00.724Z,10.48
2017-03-21T07:52:09.706Z,10.53
2017-03-21T07:53:18.688Z,10.66
2017-03-21T07:54:28.269Z,10.52
2017-03-21T07:55:37.259Z,10.55
2017-03-21T07:56:46.232Z,10.29
2017-03-21T07:57:54.912Z,10.3
2017-03-21T07:59:04.494Z,10.04
2017-03-21T08:00:13.779Z,9.9
2017-03-21T08:01:22.449Z,9.69
2017-03-21T08:02:31.127Z,9.58
2017-03-21T08:03:40.109Z,9.46
2017-03-21T08:04:49.088Z,9.29
2017-03-21T08:05:58.661Z,9.36
2017-03-21T08:07:07.643Z,9.33
2017-03-21T08:08:16.324Z,9.28
2017-03-21T08:09:25.612Z,9.42
2017-03-21T08:10:34.895Z,9.47
2017-03-21T08:11:43.861Z,9.36
2017-03-21T08:12:52.834Z,9.42
2017-03-21T08:14:01.800Z,9.48
2017-03-21T08:15:10.470Z,9.4
2017-03-21T08:16:20.042Z,9.57
2017-03-21T08:17:29.018Z,9.6
2017-03-21T08:18:38.600Z,9.57
2017-03-21T08:19:47.579Z,9.66
2017-03-21T08:20:56.605Z,9.74
2017-03-21T08:22:05.268Z,9.74
2017-03-21T08:23:14.247Z,9.79
2017-03-21T08:24:23.528Z,9.91
2017-03-21T08:25:32.809Z,9.94
2017-03-21T08:26:41.482Z,9.89
2017-03-21T08:27:51.072Z,10.01
2017-03-21T08:29:00.666Z,10.02
2017-03-21T08:30:09.346Z,9.89
2017-03-21T08:31:18.930Z,10.01
2017-03-21T08:32:27.908Z,10.04
2017-03-21T08:33:36.589Z,9.99
2017-03-21T08:34:45.864Z,10.04
2017-03-21T08:35:55.436Z,9.9
2017-03-21T08:37:04.717Z,10.02
2017-03-21T08:38:13.686Z,9.9
2017-03-21T08:39:22.360Z,9.9
2017-03-21T08:40:31.345Z,10.01
2017-03-21T08:41:40.021Z,9.89
2017-03-21T08:42:48.691Z,9.89
2017-03-21T08:43:57.361Z,9.84
2017-03-21T08:45:06.038Z,9.86
2017-03-21T08:46:14.703Z,9.84
2017-03-21T08:47:23.978Z,9.84
2017-03-21T08:48:32.961Z,9.76
2017-03-21T08:49:42.185Z,9.71
2017-03-21T08:50:51.467Z,9.58
2017-03-21T08:52:00.446Z,9.43
2017-03-21T08:53:09.125Z,9.38
2017-03-21T08:54:18.422Z,9.35
2017-03-21T08:55:27.696Z,9.2
2017-03-21T08:56:36.362Z,9.11
2017-03-21T08:57:45.336Z,8.92
2017-03-21T08:58:53.997Z,8.96
2017-03-21T09:00:02.976Z,8.37
2017-03-21T09:01:11.899Z,7.77
2017-03-21T09:02:20.877Z,7.64
2017-03-21T09:03:30.168Z,7.71
2017-03-21T09:04:38.840Z,7.68
2017-03-21T09:05:47.503Z,7.85
2017-03-21T09:06:56.474Z,7.75
2017-03-21T09:08:05.450Z,7.97
2017-03-21T09:09:14.438Z,7.93
2017-03-21T09:10:23.116Z,7.89
2017-03-21T09:11:31.820Z,7.92
2017-03-21T09:12:40.785Z,8
2017-03-21T09:13:49.756Z,7.89
2017-03-21T09:14:58.425Z,7.93
2017-03-21T09:16:07.094Z,7.75
2017-03-21T09:17:15.765Z,7.87
2017-03-21T09:18:24.436Z,7.83
2017-03-21T09:19:33.107Z,7.95
2017-03-21T09:20:42.075Z,7.95
2017-03-21T09:21:50.750Z,7.9
2017-03-21T09:22:59.422Z,8.07
2017-03-21T09:24:08.089Z,8.16
2017-03-21T09:25:17.654Z,8.47
2017-03-21T09:26:26.329Z,8.59
2017-03-21T09:27:35.001Z,8.73
2017-03-21T09:28:43.712Z,8.89
2017-03-21T09:29:52.686Z,8.86
2017-03-21T09:31:01.657Z,8.7
2017-03-21T09:32:10.321Z,8.76
2017-03-21T09:33:18.988Z,8.71
2017-03-21T09:34:27.660Z,8.86
2017-03-21T09:35:37.239Z,8.83
2017-03-21T09:36:45.915Z,8.74
2017-03-21T09:37:54.593Z,8.62
2017-03-21T09:39:03.581Z,8.7
2017-03-21T09:40:12.249Z,8.87
2017-03-21T09:41:21.224Z,8.89
2017-03-21T09:42:30.192Z,8.94
2017-03-21T09:43:38.858Z,8.87
2017-03-21T09:44:47.534Z,8.98
2017-03-21T09:45:56.189Z,9.04
2017-03-21T09:47:04.864Z,9.01
2017-03-21T09:48:13.541Z,9.02
2017-03-21T09:49:22.822Z,9.14
2017-03-21T09:50:31.497Z,9.13
2017-03-21T09:51:40.172Z,9.29
2017-03-21T09:52:49.143Z,9.69
2017-03-21T09:53:57.815Z,10.07
2017-03-21T09:55:06.493Z,10.23
2017-03-21T09:56:15.767Z,10.15
2017-03-21T09:57:25.038Z,9.9
2017-03-21T09:58:33.710Z,9.61
2017-03-21T09:59:43.284Z,9.33
2017-03-21T10:00:52.254Z,9.23
2017-03-21T10:02:01.224Z,9.13
2017-03-21T10:03:10.204Z,8.99
2017-03-21T10:04:18.879Z,9.11
2017-03-21T10:05:27.585Z,9.13
2017-03-21T10:06:36.560Z,9.08
2017-03-21T10:07:45.230Z,9.17
2017-03-21T10:08:54.199Z,9.1
2017-03-21T10:10:02.859Z,9.02
2017-03-21T10:11:11.524Z,8.89
2017-03-21T10:12:20.198Z,8.92
2017-03-21T10:13:29.160Z,9.1
2017-03-21T10:14:37.824Z,9.13
2017-03-21T10:15:46.794Z,9.13
2017-03-21T10:16:55.462Z,9.11
2017-03-21T10:18:04.135Z,9.11
2017-03-21T10:19:13.108Z,8.95
2017-03-21T10:20:21.774Z,9.04
2017-03-21T10:21:30.750Z,9.11
2017-03-21T10:22:40.021Z,9.08
2017-03-21T10:23:48.992Z,8.99
2017-03-21T10:24:57.978Z,9.14
2017-03-21T10:26:06.647Z,9.15
2017-03-21T10:27:15.320Z,9.08
2017-03-21T10:28:23.988Z,9.33
2017-03-21T10:29:32.659Z,9.53
2017-03-21T10:30:41.630Z,10.01
2017-03-21T10:31:50.602Z,10.34
2017-03-21T10:32:59.607Z,10.7
2017-03-21T10:34:08.304Z,10.82
2017-03-21T10:35:16.973Z,10.81
2017-03-21T10:36:25.943Z,10.84
2017-03-21T10:37:34.613Z,10.7
2017-03-21T10:38:43.281Z,10.66
2017-03-21T10:39:52.869Z,10.7
2017-03-21T10:41:01.551Z,10.88
2017-03-21T10:42:10.225Z,10.99
2017-03-21T10:43:18.908Z,11.1
2017-03-21T10:44:27.586Z,11.27
2017-03-21T10:45:36.566Z,11.44
2017-03-21T10:46:45.537Z,11.42
2017-03-21T10:47:54.219Z,11.36
2017-03-21T10:49:03.194Z,11.18
2017-03-21T10:50:12.168Z,11.03
2017-03-21T10:51:20.843Z,11.06
2017-03-21T10:52:29.816Z,11.02
2017-03-21T10:53:39.099Z,11.14
2017-03-21T10:54:48.116Z,11.36
2017-03-21T10:55:57.111Z,11.44
2017-03-21T10:57:05.789Z,11.32
2017-03-21T10:58:14.769Z,11.21
2017-03-21T10:59:24.047Z,11.11
2017-03-21T11:00:33.029Z,11.03
2017-03-21T11:01:42.313Z,10.78
2017-03-21T11:02:51.292Z,10.53
2017-03-21T11:04:00.271Z,10.3
2017-03-21T11:05:09.543Z,10.18
2017-03-21T11:06:18.228Z,10.18
2017-03-21T11:07:26.908Z,10.05
2017-03-21T11:08:35.890Z,10.14
2017-03-21T11:09:45.178Z,10.15
2017-03-21T11:10:53.860Z,10.36
2017-03-21T11:12:02.871Z,10.82
2017-03-21T11:13:11.553Z,10.86
2017-03-21T11:14:20.226Z,10.91
2017-03-21T11:15:29.203Z,10.63
2017-03-21T11:16:38.180Z,10.36
2017-03-21T11:17:46.848Z,10.26
2017-03-21T11:18:55.569Z,10.26
2017-03-21T11:20:04.549Z,10.29
2017-03-21T11:21:13.225Z,10.22
2017-03-21T11:22:22.203Z,10.2
2017-03-21T11:23:31.483Z,10.25
2017-03-21T11:24:40.160Z,10.32
2017-03-21T11:25:48.840Z,10.33
2017-03-21T11:26:58.414Z,10.29
2017-03-21T11:28:07.694Z,10.23
2017-03-21T11:29:16.978Z,9.97
2017-03-21T11:30:25.986Z,9.94
2017-03-21T11:31:34.967Z,9.89
2017-03-21T11:32:43.640Z,9.71
2017-03-21T11:33:52.615Z,9.75
2017-03-21T11:35:01.296Z,9.66
2017-03-21T11:36:09.978Z,9.68
2017-03-21T11:37:18.670Z,9.6
2017-03-21T11:38:27.943Z,9.71
2017-03-21T11:39:37.215Z,9.81
2017-03-21T11:40:46.499Z,9.99
2017-03-21T11:41:55.172Z,10.2
2017-03-21T11:43:04.156Z,10.32
2017-03-21T11:44:13.161Z,10.44
2017-03-21T11:45:21.841Z,10.7
2017-03-21T11:46:30.518Z,10.68
2017-03-21T11:47:39.201Z,10.81
2017-03-21T11:48:48.190Z,10.76
2017-03-21T11:49:57.176Z,10.78
2017-03-21T11:51:06.160Z,10.91
2017-03-21T11:52:14.834Z,10.94
2017-03-21T11:53:24.122Z,11.06
2017-03-21T11:54:33.100Z,11
2017-03-21T11:55:41.770Z,10.96
2017-03-21T11:56:50.445Z,10.84
2017-03-21T11:57:59.123Z,10.71
2017-03-21T11:59:07.810Z,10.66
2017-03-21T12:00:16.484Z,10.61
2017-03-21T12:01:25.473Z,10.7
2017-03-21T12:02:34.148Z,10.81
2017-03-21T12:03:43.127Z,10.88
2017-03-21T12:04:52.103Z,10.86
2017-03-21T12:06:00.784Z,10.85
2017-03-21T12:07:09.499Z,10.73
2017-03-21T12:08:18.177Z,10.76
2017-03-21T12:09:26.865Z,11
2017-03-21T12:10:35.540Z,10.99
2017-03-21T12:11:44.518Z,11.09
2017-03-21T12:12:53.193Z,11.22
2017-03-21T12:14:02.777Z,11.4
2017-03-21T12:15:12.051Z,11.36
2017-03-21T12:16:20.721Z,11.32
2017-03-21T12:17:29.399Z,11.25
2017-03-21T12:18:38.375Z,11.28
2017-03-21T12:19:47.655Z,11.24
2017-03-21T12:20:56.629Z,11.18
2017-03-21T12:22:05.316Z,11.22
2017-03-21T12:23:13.989Z,11.37
2017-03-21T12:24:23.259Z,11.43
2017-03-21T12:25:32.233Z,11.6
2017-03-21T12:26:40.905Z,11.73
2017-03-21T12:27:49.580Z,11.8
2017-03-21T12:28:58.856Z,11.67
2017-03-21T12:30:08.436Z,11.7
2017-03-21T12:31:17.407Z,11.67
2017-03-21T12:32:26.686Z,11.72
2017-03-21T12:33:35.662Z,11.69
2017-03-21T12:34:44.952Z,11.75
2017-03-21T12:35:54.233Z,11.76
2017-03-21T12:37:03.212Z,11.85
2017-03-21T12:38:11.908Z,11.91
2017-03-21T12:39:21.189Z,11.9
2017-03-21T12:40:30.222Z,11.86
2017-03-21T12:41:38.900Z,11.88
2017-03-21T12:42:48.185Z,11.83
2017-03-21T12:43:58.073Z,11.78
2017-03-21T12:45:07.052Z,11.79
2017-03-21T12:46:16.024Z,11.79
2017-03-21T12:47:24.693Z,11.75
2017-03-21T12:48:33.706Z,11.73
2017-03-21T12:49:42.682Z,11.8
2017-03-21T12:50:51.955Z,11.7
2017-03-21T12:52:01.236Z,11.62
2017-03-21T12:53:09.918Z,11.54
2017-03-21T12:54:18.888Z,11.61
2017-03-21T12:55:27.575Z,11.46
2017-03-21T12:56:36.251Z,11.4
2017-03-21T12:57:44.925Z,11.51
2017-03-21T12:58:54.210Z,11.43
2017-03-21T13:00:03.187Z,11.42
2017-03-21T13:01:11.860Z,11.33
2017-03-21T13:02:20.538Z,11.28
2017-03-21T13:03:29.505Z,11.47
2017-03-21T13:04:39.380Z,11.54
2017-03-21T13:05:48.048Z,11.58
2017-03-21T13:06:57.024Z,11.4
2017-03-21T13:08:05.994Z,11.43
2017-03-21T13:09:14.963Z,11.4
2017-03-21T13:10:23.641Z,11.46
2017-03-21T13:11:32.618Z,11.33
2017-03-21T13:12:41.303Z,11.35
2017-03-21T13:13:50.578Z,11.29
2017-03-21T13:14:59.261Z,11.47
2017-03-21T13:16:08.249Z,11.65
2017-03-21T13:17:16.920Z,11.7
2017-03-21T13:18:25.897Z,11.57
2017-03-21T13:19:35.171Z,11.55
2017-03-21T13:20:44.141Z,11.62
2017-03-21T13:21:53.116Z,11.67
2017-03-21T13:23:02.091Z,11.58
2017-03-21T13:24:11.376Z,11.49
2017-03-21T13:25:20.052Z,11.49
2017-03-21T13:26:28.731Z,11.44
2017-03-21T13:27:37.710Z,11.44
2017-03-21T13:28:46.685Z,11.49
2017-03-21T13:29:55.669Z,11.4
2017-03-21T13:31:04.642Z,11.47
2017-03-21T13:32:13.326Z,11.49
2017-03-21T13:33:21.999Z,11.69
2017-03-21T13:34:31.582Z,11.75
2017-03-21T13:35:40.253Z,11.78
2017-03-21T13:36:49.238Z,11.72
2017-03-21T13:37:58.206Z,11.69
2017-03-21T13:39:06.884Z,11.8
2017-03-21T13:40:15.866Z,11.7
2017-03-21T13:41:24.532Z,11.8
2017-03-21T13:42:33.803Z,11.91
2017-03-21T13:43:42.780Z,11.83
2017-03-21T13:44:51.456Z,11.85
2017-03-21T13:46:00.435Z,11.78
2017-03-21T13:47:09.409Z,11.72
2017-03-21T13:48:18.083Z,11.6
2017-03-21T13:49:27.063Z,11.62
2017-03-21T13:50:36.035Z,11.58
2017-03-21T13:51:44.709Z,11.54
2017-03-21T13:52:53.383Z,11.39
2017-03-21T13:54:02.062Z,11.37
2017-03-21T13:55:11.056Z,11.39
2017-03-21T13:56:19.741Z,11.39
2017-03-21T13:57:29.017Z,11.42
2017-03-21T13:58:37.695Z,11.4
2017-03-21T13:59:46.677Z,11.62
2017-03-21T14:00:55.348Z,11.55
2017-03-21T14:02:04.021Z,11.55
2017-03-21T14:03:13.006Z,11.55
2017-03-21T14:04:22.286Z,11.65
2017-03-21T14:05:31.565Z,11.73
2017-03-21T14:06:40.842Z,11.57
2017-03-21T14:07:49.526Z,11.52
2017-03-21T14:08:58.806Z,11.6
2017-03-21T14:10:07.790Z,11.55
2017-03-21T14:11:16.773Z,11.44
2017-03-21T14:12:25.745Z,11.46
2017-03-21T14:13:35.023Z,11.47
2017-03-21T14:14:44.295Z,11.42
2017-03-21T14:15:52.963Z,11.58
2017-03-21T14:17:02.286Z,11.52
2017-03-21T14:18:10.969Z,11.42
2017-03-21T14:19:20.244Z,11.37
2017-03-21T14:20:28.925Z,11.18
2017-03-21T14:21:37.909Z,11.14
2017-03-21T14:22:47.179Z,10.94
2017-03-21T14:23:56.154Z,10.92
2017-03-21T14:25:05.427Z,10.82
2017-03-21T14:26:14.404Z,10.88
2017-03-21T14:27:23.386Z,10.91
2017-03-21T14:28:32.056Z,11.03
2017-03-21T14:29:41.039Z,11.03
2017-03-21T14:30:49.709Z,10.99
2017-03-21T14:31:58.982Z,10.92
2017-03-21T14:33:07.659Z,11.04
2017-03-21T14:34:16.627Z,10.91
2017-03-21T14:35:25.306Z,10.89
2017-03-21T14:36:34.620Z,10.89
2017-03-21T14:37:43.291Z,11.1
2017-03-21T14:38:51.982Z,11.21
2017-03-21T14:40:00.659Z,11.25
2017-03-21T14:41:09.631Z,11.28
2017-03-21T14:42:18.602Z,11.04
2017-03-21T14:43:27.279Z,10.94
2017-03-21T14:44:36.247Z,10.97
2017-03-21T14:45:45.213Z,10.92
2017-03-21T14:46:53.883Z,10.79
2017-03-21T14:48:02.863Z,10.78
2017-03-21T14:49:11.845Z,10.81
2017-03-21T14:50:21.138Z,10.89
2017-03-21T14:51:29.811Z,10.88
2017-03-21T14:52:38.786Z,10.86
2017-03-21T14:53:48.072Z,10.89
2017-03-21T14:54:57.353Z,10.81
2017-03-21T14:56:06.038Z,10.76
2017-03-21T14:57:14.720Z,10.96
2017-03-21T14:58:24.003Z,11
2017-03-21T14:59:33.616Z,11.04
2017-03-21T15:00:42.902Z,11.03
2017-03-21T15:01:51.873Z,11.02
2017-03-21T15:03:00.550Z,10.91
2017-03-21T15:04:09.528Z,10.96
2017-03-21T15:05:18.803Z,11.04
2017-03-21T15:06:27.478Z,11.19
2017-03-21T15:07:36.158Z,11.24
2017-03-21T15:08:45.131Z,11.15
2017-03-21T15:09:53.803Z,11.22
2017-03-21T15:11:02.468Z,11.06
2017-03-21T15:12:11.141Z,11.02
2017-03-21T15:13:19.826Z,11.04
2017-03-21T15:14:29.414Z,11.19
2017-03-21T15:15:38.080Z,11.06
2017-03-21T15:16:47.347Z,11.1
2017-03-21T15:17:56.016Z,11.14
2017-03-21T15:19:04.689Z,11.14
2017-03-21T15:20:13.677Z,11.19
2017-03-21T15:21:22.342Z,11.11
2017-03-21T15:22:31.022Z,10.97
2017-03-21T15:23:39.703Z,10.99
2017-03-21T15:24:48.381Z,11.06
2017-03-21T15:25:57.362Z,11
2017-03-21T15:27:06.040Z,10.96
2017-03-21T15:28:15.618Z,10.91
2017-03-21T15:29:24.619Z,10.81
2017-03-21T15:30:33.587Z,10.88
2017-03-21T15:31:42.862Z,10.71
2017-03-21T15:32:51.836Z,10.7
2017-03-21T15:34:00.498Z,10.61